createdAt,value
2022-07-30T00:00:25.864Z,8.43
2022-07-30T00:02:53.084Z,5.32
2022-07-30T00:05:20.416Z,6.72
2022-07-30T00:07:47.469Z,7.13
2022-07-30T00:10:14.254Z,8.02
2022-07-30T00:12:40.947Z,9.05
2022-07-30T00:15:08.299Z,8.10
2022-07-30T00:17:34.930Z,5.88
2022-07-30T00:20:01.789Z,6.40
2022-07-30T00:22:30.723Z,6.28
2022-07-30T00:24:57.436Z,8.82
2022-07-30T00:27:24.121Z,8.38
2022-07-30T00:29:50.739Z,7.63
2022-07-30T00:32:17.425Z,10.45
2022-07-30T00:34:44.068Z,8.25
2022-07-30T00:37:10.772Z,8.55
2022-07-30T00:39:37.378Z,6.57
2022-07-30T00:42:04.441Z,7.40
2022-07-30T00:44:31.208Z,6.80
2022-07-30T00:46:58.808Z,7.22
2022-07-30T00:49:25.862Z,7.15
2022-07-30T00:51:53.218Z,9.73
2022-07-30T00:54:21.361Z,11.55
2022-07-30T00:56:48.940Z,10.27
2022-07-30T00:59:16.105Z,8.38
2022-07-30T01:01:42.898Z,6.47
2022-07-30T01:04:14.066Z,6.18
2022-07-30T01:06:41.298Z,6.13
2022-07-30T01:09:08.207Z,7.88
2022-07-30T01:11:40.445Z,5.97
2022-07-30T01:14:08.441Z,8.23
2022-07-30T01:16:37.972Z,10.80
2022-07-30T01:19:28.739Z,9.18
2022-07-30T01:22:07.259Z,6.43
2022-07-30T01:24:37.034Z,8.23
2022-07-30T01:27:05.056Z,10.35
2022-07-30T01:29:34.021Z,7.75
2022-07-30T01:32:03.202Z,9.90
2022-07-30T01:34:31.915Z,10.15
2022-07-30T01:36:59.694Z,9.27
2022-07-30T01:39:27.023Z,8.60
2022-07-30T01:41:54.684Z,11.32
2022-07-30T01:44:23.826Z,11.90
2022-07-30T01:46:53.690Z,7.28
2022-07-30T01:49:22.227Z,7.25
2022-07-30T01:51:49.573Z,8.02
2022-07-30T01:54:18.288Z,11.93
2022-07-30T01:56:46.536Z,11.77
2022-07-30T01:59:14.772Z,7.50
2022-07-30T02:01:41.770Z,7.65
2022-07-30T02:04:08.680Z,7.85
2022-07-30T02:06:42.418Z,9.27
2022-07-30T02:09:15.954Z,12.82
2022-07-30T02:12:05.907Z,6.43
2022-07-30T02:14:48.290Z,6.85
2022-07-30T02:17:30.192Z,10.77
2022-07-30T02:19:57.750Z,11.60
2022-07-30T02:22:26.424Z,15.23
2022-07-30T02:24:53.565Z,11.30
2022-07-30T02:27:24.770Z,8.60
2022-07-30T02:29:52.585Z,8.05
2022-07-30T02:32:20.932Z,11.23
2022-07-30T02:34:53.345Z,7.63
2022-07-30T02:37:39.268Z,8.02
2022-07-30T02:40:11.423Z,13.57
2022-07-30T02:42:39.030Z,10.77
2022-07-30T02:45:06.628Z,8.43
2022-07-30T02:47:33.771Z,9.38
2022-07-30T02:50:04.005Z,19.00
2022-07-30T02:52:32.482Z,9.25
2022-07-30T02:55:00.487Z,11.70
2022-07-30T02:57:31.249Z,14.77
2022-07-30T02:59:59.374Z,10.25
2022-07-30T03:02:29.579Z,12.80
2022-07-30T03:04:59.166Z,9.43
2022-07-30T03:07:27.486Z,10.45
2022-07-30T03:09:56.408Z,9.95
2022-07-30T03:12:25.990Z,10.43
2022-07-30T03:14:52.775Z,14.18
2022-07-30T03:17:20.004Z,8.25
2022-07-30T03:19:48.772Z,24.33
2022-07-30T03:22:18.072Z,11.10
2022-07-30T03:24:45.872Z,10.57
2022-07-30T03:27:13.835Z,12.15
2022-07-30T03:29:42.122Z,12.80
2022-07-30T03:32:09.142Z,8.75
2022-07-30T03:34:41.549Z,12.23
2022-07-30T03:37:08.823Z,11.52
2022-07-30T03:39:36.283Z,13.63
2022-07-30T03:42:07.108Z,14.43
2022-07-30T03:44:35.248Z,10.45
2022-07-30T03:47:05.482Z,14.63
2022-07-30T03:49:40.322Z,12.00
2022-07-30T03:52:09.806Z,14.43
2022-07-30T03:54:37.121Z,10.35
2022-07-30T03:57:22.819Z,18.30
2022-07-30T03:59:51.732Z,15.18
2022-07-30T04:02:20.352Z,13.40
2022-07-30T04:05:10.119Z,11.25
2022-07-30T04:07:41.414Z,10.18
2022-07-30T04:10:21.214Z,13.82
2022-07-30T04:13:00.400Z,12.65
2022-07-30T04:16:35.021Z,12.02
2022-07-30T04:18:17.489Z,10.38
2022-07-30T04:20:46.517Z,13.35
2022-07-30T04:23:14.388Z,15.18
2022-07-30T04:25:43.685Z,12.55
2022-07-30T04:28:11.877Z,10.85
2022-07-30T04:30:38.850Z,19.77
2022-07-30T04:33:05.646Z,13.15
2022-07-30T04:35:52.393Z,12.38
2022-07-30T04:38:31.608Z,12.43
2022-07-30T04:40:58.538Z,19.42
2022-07-30T04:43:28.203Z,13.85
2022-07-30T04:45:55.134Z,11.85
2022-07-30T04:48:22.205Z,16.50
2022-07-30T04:50:50.225Z,15.18
2022-07-30T04:53:19.819Z,14.93
2022-07-30T04:55:54.247Z,20.63
2022-07-30T04:58:25.835Z,18.55
2022-07-30T05:00:57.081Z,24.90
2022-07-30T05:03:33.574Z,26.85
2022-07-30T05:06:01.212Z,23.63
2022-07-30T05:08:31.681Z,25.38
2022-07-30T05:11:02.160Z,28.65
2022-07-30T05:13:34.316Z,23.33
2022-07-30T05:16:03.406Z,27.20
2022-07-30T05:18:30.218Z,26.00
2022-07-30T05:20:57.104Z,26.13
2022-07-30T05:23:50.821Z,25.88
2022-07-30T05:26:27.599Z,25.25
2022-07-30T05:28:56.978Z,25.63
2022-07-30T05:31:31.218Z,26.17
2022-07-30T05:34:03.457Z,29.45
2022-07-30T05:36:40.693Z,30.20
2022-07-30T05:39:07.678Z,25.92
2022-07-30T05:41:56.473Z,27.90
2022-07-30T05:44:31.045Z,31.13
2022-07-30T05:46:58.958Z,28.30
2022-07-30T05:49:25.886Z,28.85
2022-07-30T05:51:56.360Z,28.08
2022-07-30T05:54:24.605Z,29.65
2022-07-30T05:57:17.445Z,29.60
2022-07-30T05:59:44.460Z,28.17
2022-07-30T06:02:24.515Z,27.40
2022-07-30T06:04:57.418Z,21.98
2022-07-30T06:07:25.070Z,22.63
2022-07-30T06:09:54.234Z,20.23
2022-07-30T06:12:21.049Z,26.45
2022-07-30T06:14:48.263Z,27.13
2022-07-30T06:17:22.263Z,26.00
2022-07-30T06:23:11.426Z,22.73
2022-07-30T06:25:56.963Z,26.73
2022-07-30T06:28:39.822Z,23.50
2022-07-30T06:31:22.330Z,21.60
2022-07-30T06:33:49.268Z,24.38
2022-07-30T06:36:16.450Z,23.98
2022-07-30T06:38:52.255Z,24.13
2022-07-30T06:41:29.952Z,22.10
2022-07-30T06:43:58.862Z,24.00
2022-07-30T06:46:44.025Z,19.88
2022-07-30T06:49:11.913Z,23.40
2022-07-30T06:51:41.067Z,22.25
2022-07-30T06:54:07.830Z,18.85
2022-07-30T06:56:34.673Z,17.48
2022-07-30T06:59:04.653Z,21.85
2022-07-30T07:01:50.490Z,17.48
2022-07-30T07:04:17.816Z,15.65
2022-07-30T07:06:44.743Z,16.40
2022-07-30T07:09:15.807Z,17.98
2022-07-30T07:11:50.333Z,14.85
2022-07-30T07:14:19.729Z,21.08
2022-07-30T07:16:48.858Z,16.90
2022-07-30T07:20:01.785Z,13.65
2022-07-30T07:22:21.110Z,18.50
2022-07-30T07:24:47.776Z,16.77
2022-07-30T07:27:20.952Z,15.27
2022-07-30T07:30:01.336Z,14.98
2022-07-30T07:32:34.273Z,15.52
2022-07-30T07:35:01.706Z,14.20
2022-07-30T07:37:29.258Z,15.15
2022-07-30T07:39:56.914Z,17.27
2022-07-30T07:42:23.970Z,15.07
2022-07-30T07:44:51.661Z,14.85
2022-07-30T07:47:18.862Z,13.95
2022-07-30T07:50:00.453Z,15.77
2022-07-30T07:52:27.248Z,17.50
2022-07-30T07:54:54.850Z,13.43
2022-07-30T07:57:22.110Z,15.13
2022-07-30T07:59:48.937Z,19.90
2022-07-30T08:02:28.705Z,20.08
2022-07-30T08:05:08.019Z,18.33
2022-07-30T08:07:51.266Z,16.85
2022-07-30T08:10:19.104Z,18.67
2022-07-30T08:13:52.728Z,19.15
2022-07-30T08:16:14.778Z,19.65
2022-07-30T08:18:59.811Z,16.35
2022-07-30T08:21:48.147Z,17.17
2022-07-30T08:24:17.488Z,18.90
2022-07-30T08:26:44.299Z,17.77
2022-07-30T08:29:15.476Z,20.25
2022-07-30T08:31:44.777Z,15.48
2022-07-30T08:34:13.447Z,15.77
2022-07-30T08:36:40.764Z,13.38
2022-07-30T08:39:07.836Z,12.57
2022-07-30T08:41:36.732Z,17.65
2022-07-30T08:44:06.911Z,18.80
2022-07-30T08:46:41.407Z,15.05
2022-07-30T08:49:25.736Z,15.13
2022-07-30T08:51:52.714Z,14.68
2022-07-30T08:54:40.820Z,14.52
2022-07-30T08:57:08.236Z,17.25
2022-07-30T08:59:59.321Z,14.48
2022-07-30T09:02:31.173Z,14.60
2022-07-30T09:05:03.858Z,16.30
2022-07-30T09:07:32.853Z,13.40
2022-07-30T09:10:05.800Z,12.98
2022-07-30T09:12:37.027Z,12.52
2022-07-30T09:15:15.752Z,14.75
2022-07-30T09:17:59.039Z,13.93
2022-07-30T09:20:36.726Z,16.98
2022-07-30T09:23:07.867Z,10.95
2022-07-30T09:25:59.148Z,9.15
2022-07-30T09:28:41.178Z,11.57
2022-07-30T09:31:13.984Z,13.73
2022-07-30T09:33:59.895Z,11.90
2022-07-30T09:39:34.949Z,10.80
2022-07-30T09:42:29.171Z,9.02
2022-07-30T09:45:12.646Z,9.35
2022-07-30T09:47:44.967Z,10.35
2022-07-30T09:50:17.930Z,21.67
2022-07-30T09:53:09.134Z,11.70
2022-07-30T09:55:42.105Z,10.40
2022-07-30T09:58:13.041Z,8.98
2022-07-30T10:00:59.418Z,8.55
2022-07-30T10:03:53.406Z,9.18
2022-07-30T10:06:43.003Z,9.75
2022-07-30T10:09:37.532Z,8.45
2022-07-30T10:12:11.065Z,6.55
2022-07-30T10:14:45.164Z,8.02
2022-07-30T10:17:15.356Z,4.78
2022-07-30T10:19:53.860Z,6.88
2022-07-30T10:22:54.221Z,7.30
2022-07-30T10:25:27.930Z,6.70
2022-07-30T10:28:14.461Z,6.88
2022-07-30T10:30:43.683Z,7.78
2022-07-30T10:33:35.187Z,7.32
2022-07-30T10:35:59.398Z,6.07
2022-07-30T10:38:33.243Z,5.30
2022-07-30T10:41:44.471Z,6.53
2022-07-30T10:44:27.689Z,5.30
2022-07-30T10:47:06.916Z,9.20
2022-07-30T10:49:40.563Z,11.35
2022-07-30T10:52:08.892Z,7.93
2022-07-30T10:54:39.460Z,6.68
2022-07-30T10:57:22.564Z,10.15
2022-07-30T10:59:50.635Z,6.88
2022-07-30T11:02:21.779Z,9.05
2022-07-30T11:04:50.398Z,8.60
2022-07-30T11:07:30.639Z,14.93
2022-07-30T11:10:09.082Z,9.10
2022-07-30T11:12:43.907Z,10.25
2022-07-30T11:15:18.295Z,7.00
2022-07-30T11:20:30.967Z,7.63
2022-07-30T11:23:19.730Z,6.53
2022-07-30T11:25:51.485Z,11.75
2022-07-30T11:28:38.866Z,9.80
2022-07-30T11:31:37.198Z,6.88
2022-07-30T11:34:19.413Z,4.85
2022-07-30T11:37:18.182Z,6.30
2022-07-30T11:39:55.667Z,5.38
2022-07-30T11:42:39.803Z,9.55
2022-07-30T11:45:15.795Z,5.82
2022-07-30T11:47:54.056Z,9.77
2022-07-30T11:50:29.194Z,6.43
2022-07-30T11:53:02.131Z,6.43
2022-07-30T11:55:37.179Z,7.45
2022-07-30T11:58:06.566Z,9.68
2022-07-30T12:00:48.108Z,5.20
2022-07-30T12:03:16.443Z,7.13
2022-07-30T12:05:43.613Z,10.88
2022-07-30T12:08:35.929Z,6.43
2022-07-30T12:11:01.697Z,5.20
2022-07-30T12:13:45.359Z,9.75
2022-07-30T12:16:16.855Z,8.02
2022-07-30T12:18:44.407Z,4.53
2022-07-30T12:21:12.955Z,5.68
2022-07-30T12:23:43.246Z,3.75
2022-07-30T12:26:26.626Z,5.55
2022-07-30T12:28:55.190Z,3.75
2022-07-30T12:31:22.565Z,5.75
2022-07-30T12:33:49.435Z,4.25
2022-07-30T12:36:35.812Z,11.15
2022-07-30T12:39:04.959Z,5.03
2022-07-30T12:41:49.280Z,3.50
2022-07-30T12:44:35.829Z,4.47
2022-07-30T12:47:07.602Z,5.38
2022-07-30T12:49:36.870Z,9.43
2022-07-30T12:52:28.337Z,5.22
2022-07-30T12:54:58.712Z,5.63
2022-07-30T12:57:29.344Z,8.80
2022-07-30T13:00:08.132Z,3.92
2022-07-30T13:02:35.257Z,4.13
2022-07-30T13:05:10.813Z,4.43
2022-07-30T13:07:53.666Z,4.18
2022-07-30T13:10:20.356Z,4.07
2022-07-30T13:12:50.608Z,5.43
2022-07-30T13:15:22.464Z,3.58
2022-07-30T13:17:52.220Z,2.38
2022-07-30T13:20:18.932Z,3.88
2022-07-30T13:22:45.711Z,5.18
2022-07-30T13:25:13.069Z,7.03
2022-07-30T13:27:40.167Z,5.45
2022-07-30T13:30:07.514Z,4.05
2022-07-30T13:32:34.161Z,3.83
2022-07-30T13:35:01.720Z,5.50
2022-07-30T13:37:38.397Z,4.53
2022-07-30T13:40:08.586Z,5.07
2022-07-30T13:42:35.514Z,3.08
2022-07-30T13:45:02.980Z,4.20
2022-07-30T13:47:30.365Z,4.63
2022-07-30T13:49:57.105Z,2.45
2022-07-30T13:52:23.824Z,3.38
2022-07-30T13:54:52.538Z,3.83
2022-07-30T13:57:19.410Z,5.05
2022-07-30T13:59:46.532Z,3.35
2022-07-30T14:02:13.629Z,4.47
2022-07-30T14:04:40.380Z,2.83
2022-07-30T14:07:07.251Z,2.22
2022-07-30T14:09:33.986Z,5.00
2022-07-30T14:12:11.741Z,3.78
2022-07-30T14:14:38.538Z,3.08
2022-07-30T14:17:05.333Z,5.45
2022-07-30T14:19:32.363Z,4.18
2022-07-30T14:21:59.247Z,3.47
2022-07-30T14:24:27.011Z,5.53
2022-07-30T14:26:58.776Z,5.65
2022-07-30T14:29:26.940Z,1.45
2022-07-30T14:31:54.325Z,3.85
2022-07-30T14:34:21.118Z,3.55
2022-07-30T14:36:48.050Z,3.78
2022-07-30T14:39:14.904Z,1.92
2022-07-30T14:41:43.003Z,4.18
2022-07-30T14:44:12.168Z,2.50
2022-07-30T14:46:51.536Z,6.32
2022-07-30T14:49:20.075Z,2.95
2022-07-30T14:51:47.466Z,2.38
2022-07-30T14:54:14.431Z,5.15
2022-07-30T14:56:41.792Z,2.38
2022-07-30T14:59:08.613Z,5.95
2022-07-30T15:01:35.409Z,3.42
2022-07-30T15:04:02.196Z,3.63
2022-07-30T15:06:28.951Z,2.85
2022-07-30T15:08:56.086Z,2.30
2022-07-30T15:11:22.793Z,5.65
2022-07-30T15:13:50.730Z,3.05
2022-07-30T15:16:18.785Z,10.07
2022-07-30T15:18:45.954Z,5.28
2022-07-30T15:21:12.630Z,4.85
2022-07-30T15:23:39.386Z,6.45
2022-07-30T15:26:06.161Z,2.70
2022-07-30T15:28:35.155Z,3.10
2022-07-30T15:31:01.884Z,2.85
2022-07-30T15:33:28.669Z,5.53
2022-07-30T15:35:56.025Z,6.88
2022-07-30T15:38:22.878Z,2.97
2022-07-30T15:40:49.664Z,3.60
2022-07-30T15:43:17.248Z,5.68
2022-07-30T15:45:55.812Z,4.20
2022-07-30T15:48:24.951Z,6.15
2022-07-30T15:51:05.729Z,4.68
2022-07-30T15:53:32.721Z,7.38
2022-07-30T15:56:00.288Z,5.22
2022-07-30T15:58:39.219Z,2.25
2022-07-30T16:01:08.747Z,4.60
2022-07-30T16:03:35.503Z,5.43
2022-07-30T16:06:02.949Z,2.78
2022-07-30T16:08:29.741Z,3.33
2022-07-30T16:10:56.532Z,6.63
2022-07-30T16:13:23.904Z,3.05
2022-07-30T16:15:50.761Z,2.35
2022-07-30T16:18:17.613Z,2.05
2022-07-30T16:20:44.537Z,5.70
2022-07-30T16:23:14.930Z,4.35
2022-07-30T16:25:46.334Z,4.82
2022-07-30T16:28:13.901Z,4.00
2022-07-30T16:30:50.898Z,6.95
2022-07-30T16:33:20.219Z,4.30
2022-07-30T16:35:48.982Z,2.53
2022-07-30T16:38:19.237Z,2.25
2022-07-30T16:40:46.253Z,1.80
2022-07-30T16:43:15.669Z,4.50
2022-07-30T16:45:47.265Z,4.17
2022-07-30T16:48:14.190Z,6.30
2022-07-30T16:50:41.999Z,4.43
2022-07-30T16:53:13.844Z,3.42
2022-07-30T16:55:42.537Z,8.25
2022-07-30T16:58:10.357Z,3.08
2022-07-30T17:00:37.423Z,7.68
2022-07-30T17:03:04.622Z,2.25
2022-07-30T17:05:31.361Z,4.15
2022-07-30T17:07:58.293Z,4.10
2022-07-30T17:10:26.607Z,5.07
2022-07-30T17:12:54.543Z,3.55
2022-07-30T17:15:32.154Z,4.18
2022-07-30T17:18:00.299Z,3.67
2022-07-30T17:20:27.110Z,2.42
2022-07-30T17:22:56.537Z,4.22
2022-07-30T17:25:27.428Z,2.30
2022-07-30T17:27:58.588Z,5.15
2022-07-30T17:30:27.520Z,6.47
2022-07-30T17:32:54.497Z,2.25
2022-07-30T17:35:24.719Z,3.08
2022-07-30T17:37:51.991Z,8.20
2022-07-30T17:40:28.989Z,4.32
2022-07-30T17:43:05.936Z,5.03
2022-07-30T17:45:34.727Z,4.65
2022-07-30T17:48:02.049Z,6.80
2022-07-30T17:50:30.757Z,8.50
2022-07-30T17:52:57.617Z,3.22
2022-07-30T17:55:25.235Z,2.63
2022-07-30T17:57:52.449Z,3.53
2022-07-30T18:00:19.434Z,4.78
2022-07-30T18:02:46.268Z,2.63
2022-07-30T18:05:15.700Z,6.78
2022-07-30T18:07:43.842Z,4.38
2022-07-30T18:10:11.592Z,5.20
2022-07-30T18:12:38.664Z,5.70
2022-07-30T18:15:06.754Z,3.22
2022-07-30T18:17:34.073Z,5.45
2022-07-30T18:20:01.560Z,4.43
2022-07-30T18:22:29.755Z,2.58
2022-07-30T18:25:00.678Z,3.85
2022-07-30T18:27:28.021Z,5.30
2022-07-30T18:29:58.019Z,5.68
2022-07-30T18:32:25.502Z,3.45
2022-07-30T18:34:52.646Z,6.75
2022-07-30T18:37:19.594Z,6.28
2022-07-30T18:39:46.581Z,5.50
2022-07-30T18:42:13.640Z,3.28
2022-07-30T18:44:40.642Z,3.05
2022-07-30T18:47:07.664Z,3.90
2022-07-30T18:49:37.005Z,3.05
2022-07-30T18:52:04.860Z,6.38
2022-07-30T18:54:33.956Z,4.22
2022-07-30T18:57:01.069Z,2.65
2022-07-30T18:59:27.899Z,5.72
2022-07-30T19:01:54.924Z,4.20
2022-07-30T19:04:21.954Z,4.68
2022-07-30T19:06:48.811Z,6.45
2022-07-30T19:10:02.293Z,5.82
2022-07-30T19:12:32.201Z,9.30
2022-07-30T19:15:05.470Z,4.18
2022-07-30T19:17:45.959Z,4.10
2022-07-30T19:20:17.812Z,3.67
2022-07-30T19:22:46.913Z,3.42
2022-07-30T19:25:14.186Z,7.07
2022-07-30T19:27:41.238Z,4.50
2022-07-30T19:30:08.491Z,12.15
2022-07-30T19:32:35.322Z,5.88
2022-07-30T19:35:02.846Z,5.70
2022-07-30T19:37:29.558Z,5.65
2022-07-30T19:40:06.409Z,3.47
2022-07-30T19:42:34.017Z,8.85
2022-07-30T19:45:11.166Z,10.15
2022-07-30T19:47:39.749Z,9.35
2022-07-30T19:50:10.353Z,2.83
2022-07-30T19:52:51.208Z,5.60
2022-07-30T19:55:35.783Z,6.53
2022-07-30T19:58:04.879Z,3.55
2022-07-30T20:00:49.456Z,4.00
2022-07-30T20:03:25.334Z,4.45
2022-07-30T20:05:57.390Z,3.67
2022-07-30T20:08:29.335Z,5.25
2022-07-30T20:10:57.694Z,10.20
2022-07-30T20:13:45.408Z,3.85
2022-07-30T20:16:14.272Z,5.90
2022-07-30T20:18:42.155Z,3.78
2022-07-30T20:21:14.594Z,8.27
2022-07-30T20:23:42.298Z,5.30
2022-07-30T20:26:13.401Z,6.30
2022-07-30T20:28:52.884Z,23.42
2022-07-30T20:31:20.502Z,4.72
2022-07-30T20:33:50.259Z,7.05
2022-07-30T20:36:18.506Z,4.25
2022-07-30T20:38:47.146Z,7.60
2022-07-30T20:41:14.990Z,7.53
2022-07-30T20:43:51.543Z,4.60
2022-07-30T20:46:23.954Z,6.82
2022-07-30T20:48:55.532Z,4.07
2022-07-30T20:51:32.956Z,5.47
2022-07-30T20:54:01.665Z,4.32
2022-07-30T20:56:28.755Z,6.70
2022-07-30T20:58:57.058Z,5.80
2022-07-30T21:01:23.844Z,5.88
2022-07-30T21:03:50.785Z,5.05
2022-07-30T21:06:17.689Z,5.28
2022-07-30T21:08:44.750Z,7.68
2022-07-30T21:11:12.537Z,3.95
2022-07-30T21:14:01.380Z,4.00
2022-07-30T21:16:30.552Z,7.93
2022-07-30T21:18:57.496Z,5.40
2022-07-30T21:21:30.411Z,6.05
2022-07-30T21:24:05.585Z,5.88
2022-07-30T21:26:32.391Z,3.38
2022-07-30T21:29:00.757Z,5.43
2022-07-30T21:32:00.309Z,4.38
2022-07-30T21:34:14.719Z,5.13
2022-07-30T21:36:45.990Z,8.38
2022-07-30T21:39:15.850Z,4.07
2022-07-30T21:41:42.705Z,5.70
2022-07-30T21:44:10.020Z,4.65
2022-07-30T21:46:38.007Z,8.63
2022-07-30T21:49:07.080Z,5.35
2022-07-30T21:51:34.846Z,6.45
2022-07-30T21:54:01.772Z,6.47
2022-07-30T21:56:33.883Z,4.68
2022-07-30T21:59:00.559Z,8.77
2022-07-30T22:01:27.215Z,3.80
2022-07-30T22:04:03.554Z,5.55
2022-07-30T22:06:40.396Z,5.25
2022-07-30T22:09:19.061Z,2.78
2022-07-30T22:12:01.160Z,3.10
2022-07-30T22:14:29.819Z,6.80
2022-07-30T22:16:58.284Z,5.85
2022-07-30T22:19:25.981Z,3.55
2022-07-30T22:21:53.234Z,5.70
2022-07-30T22:24:29.349Z,7.50
2022-07-30T22:27:10.694Z,6.03
2022-07-30T22:29:42.992Z,3.92
2022-07-30T22:32:10.945Z,8.00
2022-07-30T22:34:37.929Z,4.50
2022-07-30T22:37:04.583Z,4.80
2022-07-30T22:39:51.535Z,7.00
2022-07-30T22:42:24.569Z,9.60
2022-07-30T22:44:52.465Z,4.53
2022-07-30T22:47:50.192Z,5.47
2022-07-30T22:50:06.456Z,3.30
2022-07-30T22:52:50.167Z,3.63
2022-07-30T22:55:23.819Z,6.63
2022-07-30T22:57:51.549Z,5.55
2022-07-30T23:00:27.495Z,3.22
2022-07-30T23:02:56.126Z,3.53
2022-07-30T23:05:23.552Z,5.10
2022-07-30T23:07:50.561Z,5.10
2022-07-30T23:10:18.621Z,4.47
2022-07-30T23:12:48.980Z,6.38
2022-07-30T23:15:15.891Z,4.70
2022-07-30T23:17:43.716Z,5.13
2022-07-30T23:20:13.677Z,5.07
2022-07-30T23:22:40.803Z,8.18
2022-07-30T23:25:10.358Z,6.95
2022-07-30T23:27:37.364Z,7.13
2022-07-30T23:30:04.358Z,4.93
2022-07-30T23:32:31.313Z,7.43
2022-07-30T23:34:57.966Z,2.88
2022-07-30T23:37:24.628Z,2.45
2022-07-30T23:39:51.375Z,7.20
2022-07-30T23:42:18.826Z,4.35
2022-07-30T23:44:45.496Z,4.72
2022-07-30T23:47:12.415Z,3.47
2022-07-30T23:49:39.095Z,5.97
2022-07-30T23:52:05.715Z,4.07
2022-07-30T23:54:32.453Z,4.85
2022-07-30T23:56:59.274Z,6.90
2022-07-30T23:59:40.929Z,4.93
